sensor_id;sensor_type;location;lat;lon;timestamp;P1;durP1;ratioP1;P2;durP2;ratioP2
21420;SDS011;10871;50.144;8.428;2023-12-20T00:01:36;8.18;;;5.07;;
21420;SDS011;10871;50.144;8.428;2023-12-20T00:04:02;6.88;;;4.55;;
21420;SDS011;10871;50.144;8.428;2023-12-20T00:06:30;6.35;;;4.30;;
21420;SDS011;10871;50.144;8.428;2023-12-20T00:08:56;7.05;;;4.53;;
21420;SDS011;10871;50.144;8.428;2023-12-20T00:11:24;6.93;;;4.80;;
21420;SDS011;10871;50.144;8.428;2023-12-20T00:13:50;7.60;;;4.78;;
21420;SDS011;10871;50.144;8.428;2023-12-20T00:16:17;6.72;;;4.93;;
21420;SDS011;10871;50.144;8.428;2023-12-20T00:18:44;5.68;;;4.00;;
21420;SDS011;10871;50.144;8.428;2023-12-20T00:21:10;6.22;;;4.03;;
21420;SDS011;10871;50.144;8.428;2023-12-20T00:23:36;6.63;;;4.40;;
21420;SDS011;10871;50.144;8.428;2023-12-20T00:26:03;9.30;;;6.63;;
21420;SDS011;10871;50.144;8.428;2023-12-20T00:28:29;9.57;;;6.93;;
21420;SDS011;10871;50.144;8.428;2023-12-20T00:30:56;5.90;;;4.25;;
21420;SDS011;10871;50.144;8.428;2023-12-20T00:33:22;7.00;;;3.92;;
21420;SDS011;10871;50.144;8.428;2023-12-20T00:35:49;4.68;;;3.40;;
21420;SDS011;10871;50.144;8.428;2023-12-20T00:38:16;4.90;;;3.72;;
21420;SDS011;10871;50.144;8.428;2023-12-20T00:40:42;6.03;;;3.60;;
21420;SDS011;10871;50.144;8.428;2023-12-20T00:43:08;4.22;;;3.45;;
21420;SDS011;10871;50.144;8.428;2023-12-20T00:45:35;6.20;;;3.92;;
21420;SDS011;10871;50.144;8.428;2023-12-20T00:48:01;6.88;;;4.30;;
21420;SDS011;10871;50.144;8.428;2023-12-20T00:50:28;5.80;;;4.00;;
21420;SDS011;10871;50.144;8.428;2023-12-20T00:52:55;5.57;;;4.05;;
21420;SDS011;10871;50.144;8.428;2023-12-20T00:55:22;5.63;;;3.97;;
21420;SDS011;10871;50.144;8.428;2023-12-20T00:57:48;5.35;;;3.53;;
21420;SDS011;10871;50.144;8.428;2023-12-20T01:00:15;4.40;;;3.40;;
21420;SDS011;10871;50.144;8.428;2023-12-20T01:02:41;5.18;;;3.53;;
21420;SDS011;10871;50.144;8.428;2023-12-20T01:05:08;7.57;;;3.63;;
21420;SDS011;10871;50.144;8.428;2023-12-20T01:07:35;5.72;;;3.90;;
21420;SDS011;10871;50.144;8.428;2023-12-20T01:10:02;5.45;;;3.40;;
21420;SDS011;10871;50.144;8.428;2023-12-20T01:12:28;5.60;;;3.92;;
21420;SDS011;10871;50.144;8.428;2023-12-20T01:14:55;3.95;;;3.00;;
21420;SDS011;10871;50.144;8.428;2023-12-20T01:17:21;4.68;;;3.50;;
21420;SDS011;10871;50.144;8.428;2023-12-20T01:19:48;4.72;;;3.40;;
21420;SDS011;10871;50.144;8.428;2023-12-20T01:22:14;4.45;;;3.30;;
21420;SDS011;10871;50.144;8.428;2023-12-20T01:24:41;4.05;;;3.25;;
21420;SDS011;10871;50.144;8.428;2023-12-20T01:27:07;5.55;;;3.50;;
21420;SDS011;10871;50.144;8.428;2023-12-20T01:29:33;3.95;;;3.05;;
21420;SDS011;10871;50.144;8.428;2023-12-20T01:32:00;3.90;;;3.42;;
21420;SDS011;10871;50.144;8.428;2023-12-20T01:34:26;3.53;;;2.80;;
21420;SDS011;10871;50.144;8.428;2023-12-20T01:36:53;3.80;;;2.83;;
21420;SDS011;10871;50.144;8.428;2023-12-20T01:39:19;2.90;;;2.60;;
21420;SDS011;10871;50.144;8.428;2023-12-20T01:41:55;3.33;;;2.70;;
21420;SDS011;10871;50.144;8.428;2023-12-20T01:44:21;3.40;;;2.60;;
21420;SDS011;10871;50.144;8.428;2023-12-20T01:46:47;3.80;;;2.92;;
21420;SDS011;10871;50.144;8.428;2023-12-20T01:49:14;3.75;;;2.67;;
21420;SDS011;10871;50.144;8.428;2023-12-20T01:51:41;5.18;;;3.30;;
21420;SDS011;10871;50.144;8.428;2023-12-20T01:54:08;3.65;;;2.75;;
21420;SDS011;10871;50.144;8.428;2023-12-20T01:56:34;2.92;;;2.63;;
21420;SDS011;10871;50.144;8.428;2023-12-20T01:59:01;3.33;;;2.70;;
21420;SDS011;10871;50.144;8.428;2023-12-20T02:01:28;5.68;;;3.63;;
21420;SDS011;10871;50.144;8.428;2023-12-20T02:03:55;3.75;;;2.70;;
21420;SDS011;10871;50.144;8.428;2023-12-20T02:06:22;2.97;;;2.53;;
21420;SDS011;10871;50.144;8.428;2023-12-20T02:08:49;3.30;;;2.85;;
21420;SDS011;10871;50.144;8.428;2023-12-20T02:11:16;3.47;;;2.67;;
21420;SDS011;10871;50.144;8.428;2023-12-20T02:13:42;2.97;;;2.45;;
21420;SDS011;10871;50.144;8.428;2023-12-20T02:16:09;3.10;;;2.80;;
21420;SDS011;10871;50.144;8.428;2023-12-20T02:18:35;3.60;;;3.05;;
21420;SDS011;10871;50.144;8.428;2023-12-20T02:21:03;4.68;;;3.08;;
21420;SDS011;10871;50.144;8.428;2023-12-20T02:23:30;4.07;;;3.10;;
21420;SDS011;10871;50.144;8.428;2023-12-20T02:25:56;4.30;;;3.15;;
21420;SDS011;10871;50.144;8.428;2023-12-20T02:28:22;3.20;;;2.38;;
21420;SDS011;10871;50.144;8.428;2023-12-20T02:30:49;3.60;;;2.75;;
21420;SDS011;10871;50.144;8.428;2023-12-20T02:33:16;2.83;;;2.40;;
21420;SDS011;10871;50.144;8.428;2023-12-20T02:35:42;3.05;;;2.60;;
21420;SDS011;10871;50.144;8.428;2023-12-20T02:38:09;4.47;;;3.03;;
21420;SDS011;10871;50.144;8.428;2023-12-20T02:40:35;3.78;;;2.60;;
21420;SDS011;10871;50.144;8.428;2023-12-20T02:43:01;3.55;;;2.63;;
21420;SDS011;10871;50.144;8.428;2023-12-20T02:45:28;3.78;;;2.47;;
21420;SDS011;10871;50.144;8.428;2023-12-20T02:47:55;3.95;;;3.17;;
21420;SDS011;10871;50.144;8.428;2023-12-20T02:50:21;5.05;;;3.45;;
21420;SDS011;10871;50.144;8.428;2023-12-20T02:52:48;4.45;;;2.83;;
21420;SDS011;10871;50.144;8.428;2023-12-20T02:55:14;3.78;;;3.08;;
21420;SDS011;10871;50.144;8.428;2023-12-20T02:57:41;3.90;;;3.00;;
21420;SDS011;10871;50.144;8.428;2023-12-20T03:00:09;3.67;;;3.03;;
21420;SDS011;10871;50.144;8.428;2023-12-20T03:02:35;3.30;;;2.85;;
21420;SDS011;10871;50.144;8.428;2023-12-20T03:05:02;4.93;;;3.20;;
21420;SDS011;10871;50.144;8.428;2023-12-20T03:07:28;4.38;;;3.47;;
21420;SDS011;10871;50.144;8.428;2023-12-20T03:09:55;5.68;;;4.45;;
21420;SDS011;10871;50.144;8.428;2023-12-20T03:12:40;5.25;;;4.22;;
21420;SDS011;10871;50.144;8.428;2023-12-20T03:15:07;5.80;;;4.15;;
21420;SDS011;10871;50.144;8.428;2023-12-20T03:17:33;5.80;;;4.45;;
21420;SDS011;10871;50.144;8.428;2023-12-20T03:20:00;5.63;;;4.18;;
21420;SDS011;10871;50.144;8.428;2023-12-20T03:22:26;5.70;;;4.43;;
21420;SDS011;10871;50.144;8.428;2023-12-20T03:24:53;4.20;;;3.40;;
21420;SDS011;10871;50.144;8.428;2023-12-20T03:27:19;4.22;;;3.15;;
21420;SDS011;10871;50.144;8.428;2023-12-20T03:29:45;3.67;;;2.90;;
21420;SDS011;10871;50.144;8.428;2023-12-20T03:32:12;3.38;;;2.92;;
21420;SDS011;10871;50.144;8.428;2023-12-20T03:34:38;5.90;;;3.55;;
21420;SDS011;10871;50.144;8.428;2023-12-20T03:37:05;3.80;;;3.22;;
21420;SDS011;10871;50.144;8.428;2023-12-20T03:39:31;3.95;;;3.15;;
21420;SDS011;10871;50.144;8.428;2023-12-20T03:41:58;4.03;;;2.80;;
21420;SDS011;10871;50.144;8.428;2023-12-20T03:44:24;3.50;;;2.97;;
21420;SDS011;10871;50.144;8.428;2023-12-20T03:46:50;3.78;;;2.90;;
21420;SDS011;10871;50.144;8.428;2023-12-20T03:49:16;3.00;;;2.50;;
21420;SDS011;10871;50.144;8.428;2023-12-20T03:51:43;2.92;;;2.40;;
21420;SDS011;10871;50.144;8.428;2023-12-20T03:54:09;2.38;;;2.05;;
21420;SDS011;10871;50.144;8.428;2023-12-20T03:56:36;2.67;;;1.95;;
21420;SDS011;10871;50.144;8.428;2023-12-20T03:59:02;2.38;;;1.80;;
21420;SDS011;10871;50.144;8.428;2023-12-20T04:01:28;2.60;;;2.00;;
21420;SDS011;10871;50.144;8.428;2023-12-20T04:03:55;2.88;;;2.40;;
21420;SDS011;10871;50.144;8.428;2023-12-20T04:06:21;2.22;;;2.03;;
21420;SDS011;10871;50.144;8.428;2023-12-20T04:08:48;2.33;;;2.13;;
21420;SDS011;10871;50.144;8.428;2023-12-20T04:11:14;2.90;;;2.33;;
21420;SDS011;10871;50.144;8.428;2023-12-20T04:13:40;2.00;;;1.80;;
21420;SDS011;10871;50.144;8.428;2023-12-20T04:16:07;2.17;;;1.90;;
21420;SDS011;10871;50.144;8.428;2023-12-20T04:18:33;4.70;;;2.08;;
21420;SDS011;10871;50.144;8.428;2023-12-20T04:21:00;3.30;;;1.90;;
21420;SDS011;10871;50.144;8.428;2023-12-20T04:23:26;1.80;;;1.60;;
21420;SDS011;10871;50.144;8.428;2023-12-20T04:25:53;5.93;;;2.10;;
21420;SDS011;10871;50.144;8.428;2023-12-20T04:28:19;2.95;;;1.70;;
21420;SDS011;10871;50.144;8.428;2023-12-20T04:30:46;2.17;;;1.80;;
21420;SDS011;10871;50.144;8.428;2023-12-20T04:33:12;4.10;;;2.22;;
21420;SDS011;10871;50.144;8.428;2023-12-20T04:35:39;3.25;;;2.63;;
21420;SDS011;10871;50.144;8.428;2023-12-20T04:38:07;5.18;;;3.00;;
21420;SDS011;10871;50.144;8.428;2023-12-20T04:40:33;4.07;;;3.38;;
21420;SDS011;10871;50.144;8.428;2023-12-20T04:42:59;5.68;;;3.30;;
21420;SDS011;10871;50.144;8.428;2023-12-20T04:45:26;5.30;;;4.22;;
21420;SDS011;10871;50.144;8.428;2023-12-20T04:47:52;7.32;;;4.80;;
21420;SDS011;10871;50.144;8.428;2023-12-20T04:50:19;9.35;;;4.95;;
21420;SDS011;10871;50.144;8.428;2023-12-20T04:52:46;6.90;;;4.38;;
21420;SDS011;10871;50.144;8.428;2023-12-20T04:55:13;6.57;;;4.15;;
21420;SDS011;10871;50.144;8.428;2023-12-20T04:57:40;7.03;;;4.13;;
21420;SDS011;10871;50.144;8.428;2023-12-20T05:00:06;7.43;;;4.00;;
21420;SDS011;10871;50.144;8.428;2023-12-20T05:02:35;8.88;;;3.70;;
21420;SDS011;10871;50.144;8.428;2023-12-20T05:05:01;8.07;;;3.30;;
21420;SDS011;10871;50.144;8.428;2023-12-20T05:07:28;6.22;;;2.78;;
21420;SDS011;10871;50.144;8.428;2023-12-20T05:09:54;6.70;;;2.90;;
21420;SDS011;10871;50.144;8.428;2023-12-20T05:12:21;10.70;;;2.83;;
21420;SDS011;10871;50.144;8.428;2023-12-20T05:14:47;7.50;;;2.75;;
21420;SDS011;10871;50.144;8.428;2023-12-20T05:17:14;4.90;;;2.50;;
21420;SDS011;10871;50.144;8.428;2023-12-20T05:19:40;6.57;;;2.60;;
21420;SDS011;10871;50.144;8.428;2023-12-20T05:22:06;6.82;;;2.90;;
21420;SDS011;10871;50.144;8.428;2023-12-20T05:24:33;7.32;;;3.38;;
21420;SDS011;10871;50.144;8.428;2023-12-20T05:26:59;4.75;;;2.53;;
21420;SDS011;10871;50.144;8.428;2023-12-20T05:29:26;4.38;;;2.47;;
21420;SDS011;10871;50.144;8.428;2023-12-20T05:31:52;7.50;;;2.97;;
21420;SDS011;10871;50.144;8.428;2023-12-20T05:34:18;9.60;;;2.58;;
21420;SDS011;10871;50.144;8.428;2023-12-20T05:36:45;5.53;;;2.20;;
21420;SDS011;10871;50.144;8.428;2023-12-20T05:39:12;5.90;;;2.95;;
21420;SDS011;10871;50.144;8.428;2023-12-20T05:41:38;5.68;;;2.22;;
21420;SDS011;10871;50.144;8.428;2023-12-20T05:44:04;7.65;;;2.25;;
21420;SDS011;10871;50.144;8.428;2023-12-20T05:46:31;5.50;;;1.90;;
21420;SDS011;10871;50.144;8.428;2023-12-20T05:48:57;9.45;;;1.98;;
21420;SDS011;10871;50.144;8.428;2023-12-20T05:51:24;7.00;;;2.63;;
21420;SDS011;10871;50.144;8.428;2023-12-20T05:53:50;6.00;;;1.70;;
21420;SDS011;10871;50.144;8.428;2023-12-20T05:56:17;7.32;;;2.10;;
21420;SDS011;10871;50.144;8.428;2023-12-20T05:58:43;8.75;;;2.58;;
21420;SDS011;10871;50.144;8.428;2023-12-20T06:01:09;5.75;;;2.20;;
21420;SDS011;10871;50.144;8.428;2023-12-20T06:03:36;4.45;;;2.47;;
21420;SDS011;10871;50.144;8.428;2023-12-20T06:06:06;9.27;;;2.33;;
21420;SDS011;10871;50.144;8.428;2023-12-20T06:08:42;4.55;;;2.17;;
21420;SDS011;10871;50.144;8.428;2023-12-20T06:11:09;10.40;;;2.40;;
21420;SDS011;10871;50.144;8.428;2023-12-20T06:13:35;6.80;;;3.20;;
21420;SDS011;10871;50.144;8.428;2023-12-20T06:16:03;11.65;;;2.42;;
21420;SDS011;10871;50.144;8.428;2023-12-20T06:18:29;8.05;;;2.53;;
21420;SDS011;10871;50.144;8.428;2023-12-20T06:20:56;8.50;;;3.90;;
21420;SDS011;10871;50.144;8.428;2023-12-20T06:23:22;8.60;;;2.50;;
21420;SDS011;10871;50.144;8.428;2023-12-20T06:25:48;10.93;;;2.50;;
21420;SDS011;10871;50.144;8.428;2023-12-20T06:28:14;6.72;;;2.30;;
21420;SDS011;10871;50.144;8.428;2023-12-20T06:30:41;3.88;;;1.83;;
21420;SDS011;10871;50.144;8.428;2023-12-20T06:33:07;7.72;;;2.30;;
21420;SDS011;10871;50.144;8.428;2023-12-20T06:35:36;3.92;;;1.95;;
21420;SDS011;10871;50.144;8.428;2023-12-20T06:38:03;8.18;;;1.60;;
21420;SDS011;10871;50.144;8.428;2023-12-20T06:40:29;8.98;;;2.10;;
21420;SDS011;10871;50.144;8.428;2023-12-20T06:42:56;10.35;;;1.88;;
21420;SDS011;10871;50.144;8.428;2023-12-20T06:45:34;7.35;;;2.03;;
21420;SDS011;10871;50.144;8.428;2023-12-20T06:48:00;8.32;;;1.90;;
21420;SDS011;10871;50.144;8.428;2023-12-20T06:50:27;5.97;;;2.13;;
21420;SDS011;10871;50.144;8.428;2023-12-20T06:52:53;8.80;;;2.80;;
21420;SDS011;10871;50.144;8.428;2023-12-20T06:55:20;8.02;;;2.15;;
21420;SDS011;10871;50.144;8.428;2023-12-20T06:57:46;5.28;;;2.00;;
21420;SDS011;10871;50.144;8.428;2023-12-20T07:00:13;5.72;;;2.10;;
21420;SDS011;10871;50.144;8.428;2023-12-20T07:02:40;9.73;;;2.40;;
21420;SDS011;10871;50.144;8.428;2023-12-20T07:05:06;7.28;;;2.40;;
21420;SDS011;10871;50.144;8.428;2023-12-20T07:07:33;9.70;;;2.42;;
21420;SDS011;10871;50.144;8.428;2023-12-20T07:09:59;8.38;;;2.47;;
21420;SDS011;10871;50.144;8.428;2023-12-20T07:12:26;8.75;;;2.45;;
21420;SDS011;10871;50.144;8.428;2023-12-20T07:14:52;6.28;;;2.22;;
21420;SDS011;10871;50.144;8.428;2023-12-20T07:17:19;4.65;;;2.35;;
21420;SDS011;10871;50.144;8.428;2023-12-20T07:19:45;4.20;;;2.38;;
21420;SDS011;10871;50.144;8.428;2023-12-20T07:22:11;9.48;;;2.90;;
21420;SDS011;10871;50.144;8.428;2023-12-20T07:24:38;6.68;;;2.30;;
21420;SDS011;10871;50.144;8.428;2023-12-20T07:27:04;6.93;;;2.40;;
21420;SDS011;10871;50.144;8.428;2023-12-20T07:29:31;6.57;;;2.50;;
21420;SDS011;10871;50.144;8.428;2023-12-20T07:31:57;9.98;;;2.90;;
21420;SDS011;10871;50.144;8.428;2023-12-20T07:34:23;9.93;;;2.58;;
21420;SDS011;10871;50.144;8.428;2023-12-20T07:36:50;5.00;;;2.03;;
21420;SDS011;10871;50.144;8.428;2023-12-20T07:39:16;4.13;;;2.30;;
21420;SDS011;10871;50.144;8.428;2023-12-20T07:41:43;9.38;;;2.15;;
21420;SDS011;10871;50.144;8.428;2023-12-20T07:44:12;7.93;;;2.28;;
21420;SDS011;10871;50.144;8.428;2023-12-20T07:46:38;5.88;;;2.35;;
21420;SDS011;10871;50.144;8.428;2023-12-20T07:49:05;6.72;;;2.35;;
21420;SDS011;10871;50.144;8.428;2023-12-20T07:51:32;15.02;;;2.42;;
21420;SDS011;10871;50.144;8.428;2023-12-20T07:53:58;7.38;;;2.00;;
21420;SDS011;10871;50.144;8.428;2023-12-20T07:56:25;3.88;;;1.95;;
21420;SDS011;10871;50.144;8.428;2023-12-20T07:58:51;6.93;;;2.13;;
21420;SDS011;10871;50.144;8.428;2023-12-20T08:01:20;5.80;;;2.15;;
21420;SDS011;10871;50.144;8.428;2023-12-20T08:03:48;8.25;;;2.50;;
21420;SDS011;10871;50.144;8.428;2023-12-20T08:06:15;8.18;;;2.08;;
21420;SDS011;10871;50.144;8.428;2023-12-20T08:08:43;6.57;;;2.30;;
21420;SDS011;10871;50.144;8.428;2023-12-20T08:11:10;10.07;;;2.30;;
21420;SDS011;10871;50.144;8.428;2023-12-20T08:13:37;9.68;;;2.40;;
21420;SDS011;10871;50.144;8.428;2023-12-20T08:16:03;8.02;;;2.53;;
21420;SDS011;10871;50.144;8.428;2023-12-20T08:18:31;6.93;;;2.30;;
21420;SDS011;10871;50.144;8.428;2023-12-20T08:20:58;5.90;;;2.35;;
21420;SDS011;10871;50.144;8.428;2023-12-20T08:23:24;10.23;;;2.42;;
21420;SDS011;10871;50.144;8.428;2023-12-20T08:25:53;7.82;;;3.00;;
21420;SDS011;10871;50.144;8.428;2023-12-20T08:28:19;4.82;;;2.10;;
21420;SDS011;10871;50.144;8.428;2023-12-20T08:30:46;4.55;;;2.28;;
21420;SDS011;10871;50.144;8.428;2023-12-20T08:33:13;5.50;;;2.10;;
21420;SDS011;10871;50.144;8.428;2023-12-20T08:35:39;10.50;;;2.70;;
21420;SDS011;10871;50.144;8.428;2023-12-20T08:38:06;8.32;;;2.30;;
21420;SDS011;10871;50.144;8.428;2023-12-20T08:40:32;8.38;;;1.95;;
21420;SDS011;10871;50.144;8.428;2023-12-20T08:42:59;7.32;;;2.20;;
21420;SDS011;10871;50.144;8.428;2023-12-20T08:45:25;4.43;;;2.28;;
21420;SDS011;10871;50.144;8.428;2023-12-20T08:47:51;4.93;;;1.98;;
21420;SDS011;10871;50.144;8.428;2023-12-20T08:50:18;5.45;;;2.10;;
21420;SDS011;10871;50.144;8.428;2023-12-20T08:52:45;5.30;;;2.10;;
21420;SDS011;10871;50.144;8.428;2023-12-20T08:55:11;10.25;;;2.20;;
21420;SDS011;10871;50.144;8.428;2023-12-20T08:57:39;5.43;;;2.17;;
21420;SDS011;10871;50.144;8.428;2023-12-20T09:00:06;5.20;;;1.77;;
21420;SDS011;10871;50.144;8.428;2023-12-20T09:02:34;5.20;;;2.05;;
21420;SDS011;10871;50.144;8.428;2023-12-20T09:05:02;7.75;;;3.08;;
21420;SDS011;10871;50.144;8.428;2023-12-20T09:07:29;6.47;;;1.95;;
21420;SDS011;10871;50.144;8.428;2023-12-20T09:09:58;7.85;;;2.22;;
21420;SDS011;10871;50.144;8.428;2023-12-20T09:12:25;6.25;;;1.80;;
21420;SDS011;10871;50.144;8.428;2023-12-20T09:14:51;4.78;;;1.80;;
21420;SDS011;10871;50.144;8.428;2023-12-20T09:17:18;5.35;;;2.05;;
21420;SDS011;10871;50.144;8.428;2023-12-20T09:19:44;10.82;;;1.92;;
21420;SDS011;10871;50.144;8.428;2023-12-20T09:22:11;4.53;;;1.80;;
21420;SDS011;10871;50.144;8.428;2023-12-20T09:24:38;6.72;;;2.30;;
21420;SDS011;10871;50.144;8.428;2023-12-20T09:27:07;8.63;;;2.30;;
21420;SDS011;10871;50.144;8.428;2023-12-20T09:29:33;10.90;;;2.20;;
21420;SDS011;10871;50.144;8.428;2023-12-20T09:31:59;7.57;;;1.90;;
21420;SDS011;10871;50.144;8.428;2023-12-20T09:34:26;3.88;;;1.70;;
21420;SDS011;10871;50.144;8.428;2023-12-20T09:36:53;6.45;;;1.98;;
21420;SDS011;10871;50.144;8.428;2023-12-20T09:39:20;4.68;;;2.08;;
21420;SDS011;10871;50.144;8.428;2023-12-20T09:41:49;6.22;;;1.95;;
21420;SDS011;10871;50.144;8.428;2023-12-20T09:44:18;8.65;;;2.00;;
21420;SDS011;10871;50.144;8.428;2023-12-20T09:46:45;6.93;;;2.25;;
21420;SDS011;10871;50.144;8.428;2023-12-20T09:49:12;8.02;;;2.10;;
21420;SDS011;10871;50.144;8.428;2023-12-20T09:51:39;7.80;;;2.33;;
21420;SDS011;10871;50.144;8.428;2023-12-20T09:54:05;8.50;;;2.53;;
21420;SDS011;10871;50.144;8.428;2023-12-20T09:56:32;4.18;;;1.90;;
21420;SDS011;10871;50.144;8.428;2023-12-20T09:58:59;8.07;;;1.98;;
21420;SDS011;10871;50.144;8.428;2023-12-20T10:01:25;5.90;;;2.22;;
21420;SDS011;10871;50.144;8.428;2023-12-20T10:03:54;4.78;;;2.25;;
21420;SDS011;10871;50.144;8.428;2023-12-20T10:06:20;8.35;;;2.13;;
21420;SDS011;10871;50.144;8.428;2023-12-20T10:08:47;7.40;;;2.05;;
21420;SDS011;10871;50.144;8.428;2023-12-20T10:11:13;6.95;;;2.05;;
21420;SDS011;10871;50.144;8.428;2023-12-20T10:13:41;7.85;;;2.13;;
21420;SDS011;10871;50.144;8.428;2023-12-20T10:16:07;8.70;;;2.40;;
21420;SDS011;10871;50.144;8.428;2023-12-20T10:18:34;4.40;;;2.20;;
21420;SDS011;10871;50.144;8.428;2023-12-20T10:21:05;6.95;;;2.13;;
21420;SDS011;10871;50.144;8.428;2023-12-20T10:23:32;5.95;;;2.22;;
21420;SDS011;10871;50.144;8.428;2023-12-20T10:25:58;6.35;;;2.25;;
21420;SDS011;10871;50.144;8.428;2023-12-20T10:28:25;6.53;;;2.20;;
21420;SDS011;10871;50.144;8.428;2023-12-20T10:30:54;6.43;;;2.03;;
21420;SDS011;10871;50.144;8.428;2023-12-20T10:33:24;6.15;;;2.25;;
21420;SDS011;10871;50.144;8.428;2023-12-20T10:35:53;7.00;;;1.77;;
21420;SDS011;10871;50.144;8.428;2023-12-20T10:38:20;10.00;;;4.05;;
21420;SDS011;10871;50.144;8.428;2023-12-20T10:40:46;5.80;;;2.33;;
21420;SDS011;10871;50.144;8.428;2023-12-20T10:43:13;6.45;;;2.30;;
21420;SDS011;10871;50.144;8.428;2023-12-20T10:45:42;5.30;;;1.92;;
21420;SDS011;10871;50.144;8.428;2023-12-20T10:48:12;7.90;;;2.20;;
21420;SDS011;10871;50.144;8.428;2023-12-20T10:50:38;5.65;;;2.00;;
21420;SDS011;10871;50.144;8.428;2023-12-20T10:53:07;6.35;;;2.47;;
21420;SDS011;10871;50.144;8.428;2023-12-20T10:55:33;6.85;;;1.95;;
21420;SDS011;10871;50.144;8.428;2023-12-20T10:58:01;7.90;;;2.13;;
21420;SDS011;10871;50.144;8.428;2023-12-20T11:00:29;6.82;;;2.25;;
21420;SDS011;10871;50.144;8.428;2023-12-20T11:02:56;4.72;;;2.00;;
21420;SDS011;10871;50.144;8.428;2023-12-20T11:05:29;8.10;;;2.22;;
21420;SDS011;10871;50.144;8.428;2023-12-20T11:08:02;4.63;;;1.77;;
21420;SDS011;10871;50.144;8.428;2023-12-20T11:10:36;5.25;;;1.90;;
21420;SDS011;10871;50.144;8.428;2023-12-20T11:13:07;5.82;;;1.83;;
21420;SDS011;10871;50.144;8.428;2023-12-20T11:15:38;8.32;;;2.00;;
21420;SDS011;10871;50.144;8.428;2023-12-20T11:18:05;7.15;;;1.80;;
21420;SDS011;10871;50.144;8.428;2023-12-20T11:20:36;5.03;;;1.83;;
21420;SDS011;10871;50.144;8.428;2023-12-20T11:23:03;4.72;;;1.77;;
21420;SDS011;10871;50.144;8.428;2023-12-20T11:25:29;6.72;;;2.08;;
21420;SDS011;10871;50.144;8.428;2023-12-20T11:28:09;6.05;;;1.70;;
21420;SDS011;10871;50.144;8.428;2023-12-20T11:30:42;5.95;;;1.65;;
21420;SDS011;10871;50.144;8.428;2023-12-20T11:33:09;6.30;;;1.90;;
21420;SDS011;10871;50.144;8.428;2023-12-20T11:35:36;6.15;;;1.95;;
21420;SDS011;10871;50.144;8.428;2023-12-20T11:38:03;4.07;;;1.52;;
21420;SDS011;10871;50.144;8.428;2023-12-20T11:40:31;6.90;;;2.05;;
21420;SDS011;10871;50.144;8.428;2023-12-20T11:42:59;6.63;;;1.75;;
21420;SDS011;10871;50.144;8.428;2023-12-20T11:45:26;4.97;;;1.67;;
21420;SDS011;10871;50.144;8.428;2023-12-20T11:47:56;3.20;;;1.40;;
21420;SDS011;10871;50.144;8.428;2023-12-20T11:50:24;7.10;;;1.65;;
21420;SDS011;10871;50.144;8.428;2023-12-20T11:52:51;4.63;;;1.60;;
21420;SDS011;10871;50.144;8.428;2023-12-20T11:55:18;5.10;;;1.83;;
21420;SDS011;10871;50.144;8.428;2023-12-20T11:57:44;7.32;;;1.55;;
21420;SDS011;10871;50.144;8.428;2023-12-20T12:00:12;5.85;;;1.90;;
21420;SDS011;10871;50.144;8.428;2023-12-20T12:02:39;8.68;;;1.70;;
21420;SDS011;10871;50.144;8.428;2023-12-20T12:05:06;6.72;;;1.85;;
21420;SDS011;10871;50.144;8.428;2023-12-20T12:07:33;7.00;;;2.08;;
21420;SDS011;10871;50.144;8.428;2023-12-20T12:10:00;5.15;;;2.22;;
21420;SDS011;10871;50.144;8.428;2023-12-20T12:12:27;3.90;;;1.77;;
21420;SDS011;10871;50.144;8.428;2023-12-20T12:14:54;8.40;;;1.77;;
21420;SDS011;10871;50.144;8.428;2023-12-20T12:17:21;8.32;;;1.95;;
21420;SDS011;10871;50.144;8.428;2023-12-20T12:19:47;3.97;;;1.60;;
21420;SDS011;10871;50.144;8.428;2023-12-20T12:22:14;7.22;;;2.17;;
21420;SDS011;10871;50.144;8.428;2023-12-20T12:24:42;5.45;;;1.92;;
21420;SDS011;10871;50.144;8.428;2023-12-20T12:27:08;5.38;;;1.65;;
21420;SDS011;10871;50.144;8.428;2023-12-20T12:29:35;5.85;;;1.80;;
21420;SDS011;10871;50.144;8.428;2023-12-20T12:32:08;5.68;;;1.70;;
21420;SDS011;10871;50.144;8.428;2023-12-20T12:34:35;4.90;;;1.88;;
21420;SDS011;10871;50.144;8.428;2023-12-20T12:37:03;6.63;;;1.90;;
21420;SDS011;10871;50.144;8.428;2023-12-20T12:39:30;4.10;;;1.70;;
21420;SDS011;10871;50.144;8.428;2023-12-20T12:41:56;4.75;;;1.70;;
21420;SDS011;10871;50.144;8.428;2023-12-20T12:44:26;5.47;;;1.90;;
21420;SDS011;10871;50.144;8.428;2023-12-20T12:46:52;5.40;;;1.90;;
21420;SDS011;10871;50.144;8.428;2023-12-20T12:49:20;6.88;;;1.65;;
21420;SDS011;10871;50.144;8.428;2023-12-20T12:51:50;7.00;;;1.77;;
21420;SDS011;10871;50.144;8.428;2023-12-20T12:54:17;5.93;;;1.70;;
21420;SDS011;10871;50.144;8.428;2023-12-20T12:56:44;7.00;;;1.77;;
21420;SDS011;10871;50.144;8.428;2023-12-20T12:59:10;5.13;;;1.70;;
21420;SDS011;10871;50.144;8.428;2023-12-20T13:01:37;4.20;;;1.70;;
21420;SDS011;10871;50.144;8.428;2023-12-20T13:04:05;3.95;;;1.77;;
21420;SDS011;10871;50.144;8.428;2023-12-20T13:06:37;5.35;;;1.73;;
21420;SDS011;10871;50.144;8.428;2023-12-20T13:09:04;3.65;;;1.55;;
21420;SDS011;10871;50.144;8.428;2023-12-20T13:11:31;5.07;;;2.53;;
21420;SDS011;10871;50.144;8.428;2023-12-20T13:14:01;6.55;;;1.80;;
21420;SDS011;10871;50.144;8.428;2023-12-20T13:16:27;8.23;;;1.73;;
21420;SDS011;10871;50.144;8.428;2023-12-20T13:18:54;5.13;;;1.80;;
21420;SDS011;10871;50.144;8.428;2023-12-20T13:21:21;7.05;;;2.60;;
21420;SDS011;10871;50.144;8.428;2023-12-20T13:23:47;4.22;;;1.45;;
21420;SDS011;10871;50.144;8.428;2023-12-20T13:26:14;7.38;;;1.90;;
21420;SDS011;10871;50.144;8.428;2023-12-20T13:28:40;5.25;;;1.80;;
21420;SDS011;10871;50.144;8.428;2023-12-20T13:31:07;9.68;;;1.95;;
21420;SDS011;10871;50.144;8.428;2023-12-20T13:33:33;6.13;;;1.98;;
21420;SDS011;10871;50.144;8.428;2023-12-20T13:36:00;5.10;;;1.80;;
21420;SDS011;10871;50.144;8.428;2023-12-20T13:38:29;8.98;;;2.03;;
21420;SDS011;10871;50.144;8.428;2023-12-20T13:40:56;4.70;;;2.03;;
21420;SDS011;10871;50.144;8.428;2023-12-20T13:43:24;6.28;;;1.85;;
21420;SDS011;10871;50.144;8.428;2023-12-20T13:45:51;5.65;;;1.88;;
21420;SDS011;10871;50.144;8.428;2023-12-20T13:48:17;6.63;;;1.83;;
21420;SDS011;10871;50.144;8.428;2023-12-20T13:50:44;5.38;;;2.00;;
21420;SDS011;10871;50.144;8.428;2023-12-20T13:53:10;6.18;;;2.30;;
21420;SDS011;10871;50.144;8.428;2023-12-20T13:55:37;4.85;;;1.80;;
21420;SDS011;10871;50.144;8.428;2023-12-20T13:58:03;8.00;;;1.95;;
21420;SDS011;10871;50.144;8.428;2023-12-20T14:00:30;3.72;;;1.73;;
21420;SDS011;10871;50.144;8.428;2023-12-20T14:02:57;5.18;;;1.98;;
21420;SDS011;10871;50.144;8.428;2023-12-20T14:05:24;5.95;;;1.98;;
21420;SDS011;10871;50.144;8.428;2023-12-20T14:07:54;3.92;;;1.90;;
21420;SDS011;10871;50.144;8.428;2023-12-20T14:10:24;7.15;;;2.22;;
21420;SDS011;10871;50.144;8.428;2023-12-20T14:12:53;5.38;;;1.83;;
21420;SDS011;10871;50.144;8.428;2023-12-20T14:15:19;4.63;;;2.00;;
21420;SDS011;10871;50.144;8.428;2023-12-20T14:17:46;5.38;;;1.90;;
21420;SDS011;10871;50.144;8.428;2023-12-20T14:20:13;6.90;;;1.73;;
21420;SDS011;10871;50.144;8.428;2023-12-20T14:22:40;8.10;;;1.80;;
21420;SDS011;10871;50.144;8.428;2023-12-20T14:25:10;6.00;;;1.95;;
21420;SDS011;10871;50.144;8.428;2023-12-20T14:27:37;4.60;;;1.48;;
21420;SDS011;10871;50.144;8.428;2023-12-20T14:30:04;4.50;;;1.83;;
21420;SDS011;10871;50.144;8.428;2023-12-20T14:32:31;5.53;;;1.77;;
21420;SDS011;10871;50.144;8.428;2023-12-20T14:34:57;4.07;;;1.77;;
21420;SDS011;10871;50.144;8.428;2023-12-20T14:37:24;5.57;;;1.70;;
21420;SDS011;10871;50.144;8.428;2023-12-20T14:39:50;8.27;;;2.15;;
21420;SDS011;10871;50.144;8.428;2023-12-20T14:42:17;6.97;;;2.03;;
21420;SDS011;10871;50.144;8.428;2023-12-20T14:44:43;3.75;;;1.90;;
21420;SDS011;10871;50.144;8.428;2023-12-20T14:47:09;4.97;;;1.60;;